Time;durP1;ratioP1;P1;durP2;ratioP2;P2;SDS_P1;SDS_P2;PMS_P1;PMS_P2;Temp;Humidity;BMP_temperature;BMP_pressure;BME280_temperature;BME280_humidity;BME280_pressure;Samples;Min_cycle;Max_cycle;Signal;HPM_P1;HPM_P2
2022/05/04 00:00:09;;;;;;;5.47;3.30;;;15.80;99.90;;;;;;5052028;28;20049;-72
2022/05/04 00:02:40;;;;;;;7.25;3.10;;;15.70;99.90;;;;;;5052621;28;20076;-72
2022/05/04 00:05:08;;;;;;;4.75;2.67;;;15.70;99.90;;;;;;5051861;28;20061;-72
2022/05/04 00:07:36;;;;;;;3.70;2.90;;;15.70;99.90;;;;;;5051947;28;20044;-72
2022/05/04 00:10:05;;;;;;;3.78;2.67;;;15.70;99.90;;;;;;5069716;28;20154;-72
2022/05/04 00:12:34;;;;;;;5.22;2.88;;;15.70;99.90;;;;;;5067974;28;20792;-72
2022/05/04 00:15:02;;;;;;;4.82;2.85;;;15.60;99.90;;;;;;5068320;28;20131;-72
2022/05/04 00:17:30;;;;;;;3.55;2.58;;;15.70;99.90;;;;;;5068414;28;20048;-72
2022/05/04 00:19:58;;;;;;;5.57;2.83;;;15.60;99.90;;;;;;5034581;28;20774;-72
2022/05/04 00:22:26;;;;;;;4.47;2.92;;;15.60;99.90;;;;;;5050152;28;20193;-72
2022/05/04 00:24:54;;;;;;;6.65;2.88;;;15.50;99.90;;;;;;5067919;28;20044;-72
2022/05/04 00:27:21;;;;;;;3.92;2.72;;;15.50;99.90;;;;;;5051623;28;20047;-72
2022/05/04 00:29:49;;;;;;;4.88;3.10;;;15.50;99.90;;;;;;5052603;28;20110;-73
2022/05/04 00:32:17;;;;;;;5.93;2.67;;;15.60;99.90;;;;;;5071640;28;20090;-72
2022/05/04 00:34:45;;;;;;;4.03;2.60;;;15.60;99.90;;;;;;5055680;28;20106;-72
2022/05/04 00:37:13;;;;;;;4.25;2.70;;;15.60;99.90;;;;;;5089788;28;20044;-72
2022/05/04 00:39:41;;;;;;;3.92;2.97;;;15.60;99.90;;;;;;5055489;28;20873;-73
2022/05/04 00:42:20;;;;;;;4.90;2.83;;;15.50;99.90;;;;;;5089643;28;20040;-72
2022/05/04 00:44:49;;;;;;;4.53;2.97;;;15.50;99.90;;;;;;5072188;28;20052;-72
2022/05/04 00:47:17;;;;;;;3.22;2.05;;;15.40;99.90;;;;;;5089576;28;20553;-72
2022/05/04 00:49:48;;;;;;;5.28;2.90;;;15.40;99.90;;;;;;5054887;28;20517;-72
2022/05/04 00:52:17;;;;;;;4.90;2.60;;;15.30;99.90;;;;;;5057837;28;20056;-72
2022/05/04 00:54:48;;;;;;;4.75;3.03;;;15.30;99.90;;;;;;5075932;28;20047;-72
2022/05/04 00:58:54;;;;;;;4.63;3.03;;;15.30;99.90;;;;;;5058744;28;20039;-72
2022/05/04 01:00:07;;;;;;;5.32;2.75;;;15.30;99.90;;;;;;5058601;28;20093;-72
2022/05/04 01:02:38;;;;;;;5.20;2.92;;;15.30;99.90;;;;;;5058889;28;20077;-72
2022/05/04 01:05:09;;;;;;;4.95;2.97;;;15.20;99.90;;;;;;5075586;28;20059;-72
2022/05/04 01:07:41;;;;;;;4.43;2.70;;;15.20;99.90;;;;;;5075620;28;20097;-72
2022/05/04 01:10:11;;;;;;;4.30;2.72;;;15.20;99.90;;;;;;5058718;28;20101;-73
2022/05/04 01:12:47;;;;;;;5.18;3.13;;;15.20;99.90;;;;;;5059366;28;20048;-72
2022/05/04 01:15:16;;;;;;;3.35;2.70;;;15.10;99.90;;;;;;5075010;28;20119;-72
2022/05/04 01:17:44;;;;;;;5.88;3.20;;;15.20;99.90;;;;;;5058982;28;20405;-72
2022/05/04 01:20:12;;;;;;;4.30;2.90;;;15.20;99.90;;;;;;5057399;28;20494;-73
2022/05/04 01:22:40;;;;;;;5.75;3.45;;;15.20;99.90;;;;;;5093070;28;20448;-72
2022/05/04 01:25:09;;;;;;;5.13;3.35;;;15.30;99.90;;;;;;5041904;28;20159;-72
2022/05/04 01:27:37;;;;;;;5.60;3.78;;;15.30;99.90;;;;;;5074859;28;20141;-72
2022/05/04 01:30:05;;;;;;;5.80;3.13;;;15.30;99.90;;;;;;5074547;28;20135;-72
2022/05/04 01:32:33;;;;;;;4.90;3.17;;;15.30;99.90;;;;;;5042106;28;20113;-72
2022/05/04 01:35:00;;;;;;;3.88;2.70;;;15.30;99.90;;;;;;5074918;28;20493;-72
2022/05/04 01:37:28;;;;;;;3.67;2.53;;;15.30;99.90;;;;;;5092839;28;20051;-72
2022/05/04 01:39:55;;;;;;;4.40;2.80;;;15.30;99.90;;;;;;5057734;28;20078;-72
2022/05/04 01:42:24;;;;;;;4.65;3.22;;;15.30;99.90;;;;;;5058594;28;20115;-72
2022/05/04 01:44:52;;;;;;;5.05;3.25;;;15.30;99.90;;;;;;5093039;28;20064;-72
2022/05/04 01:47:19;;;;;;;5.05;3.67;;;15.30;99.90;;;;;;5074473;28;20270;-72
2022/05/04 01:49:47;;;;;;;6.80;3.72;;;15.30;99.90;;;;;;5092706;28;20131;-72
2022/05/04 01:52:14;;;;;;;7.50;4.00;;;15.20;99.90;;;;;;5058321;28;20063;-72
2022/05/04 01:54:42;;;;;;;4.97;3.78;;;15.20;99.90;;;;;;5074736;28;20050;-72
2022/05/04 01:57:09;;;;;;;7.40;5.85;;;15.20;99.90;;;;;;5057433;28;20135;-72
2022/05/04 01:59:37;;;;;;;5.78;4.18;;;15.20;99.90;;;;;;5074482;28;20048;-72
2022/05/04 02:02:08;;;;;;;8.82;5.03;;;15.20;99.90;;;;;;5074267;28;20051;-72
2022/05/04 02:04:38;;;;;;;6.40;4.47;;;15.20;99.90;;;;;;5058249;28;20440;-73
2022/05/04 02:07:08;;;;;;;5.63;4.25;;;15.20;99.90;;;;;;5074465;28;20052;-72
2022/05/04 02:09:36;;;;;;;7.70;4.82;;;15.20;99.90;;;;;;5072609;28;20270;-72
2022/05/04 02:12:05;;;;;;;8.55;5.05;;;15.20;99.90;;;;;;5074208;28;20043;-72
2022/05/04 02:14:33;;;;;;;5.78;4.28;;;15.20;99.90;;;;;;5074594;28;20051;-72
2022/05/04 02:17:01;;;;;;;6.18;4.50;;;15.20;99.90;;;;;;5073677;28;20052;-72
2022/05/04 02:19:29;;;;;;;7.90;5.97;;;15.20;99.90;;;;;;5057724;28;20039;-72
2022/05/04 02:21:56;;;;;;;9.63;6.10;;;15.20;99.90;;;;;;5040971;28;20076;-72
2022/05/04 02:24:24;;;;;;;12.38;6.55;;;15.20;99.90;;;;;;5073893;28;20146;-72
2022/05/04 02:26:51;;;;;;;8.93;6.03;;;15.10;99.90;;;;;;5074159;28;20059;-72
2022/05/04 02:29:19;;;;;;;8.68;5.50;;;15.00;99.90;;;;;;5073597;28;20409;-72
2022/05/04 02:31:46;;;;;;;7.07;4.82;;;14.80;99.90;;;;;;5073978;28;20051;-72
2022/05/04 02:34:14;;;;;;;5.55;3.97;;;14.70;99.90;;;;;;5073984;28;20075;-72
2022/05/04 02:39:28;;;;;;;6.85;3.95;;;14.30;99.90;;;;;;5073675;28;20055;-72
2022/05/04 02:41:55;;;;;;;6.72;4.38;;;14.10;99.90;;;;;;5073789;28;20580;-72
2022/05/04 02:44:23;;;;;;;6.32;4.22;;;14.00;99.90;;;;;;5073747;28;20562;-72
2022/05/04 02:46:50;;;;;;;6.68;3.97;;;13.90;99.90;;;;;;5048574;28;20109;-72
2022/05/04 02:49:18;;;;;;;6.82;4.80;;;13.90;99.90;;;;;;5073061;28;20376;-72
2022/05/04 02:51:46;;;;;;;5.65;4.10;;;13.90;99.90;;;;;;5073674;28;20397;-73
2022/05/04 02:54:13;;;;;;;6.97;4.60;;;13.90;99.90;;;;;;5073176;28;20062;-72
2022/05/04 02:56:41;;;;;;;4.78;3.25;;;14.10;99.90;;;;;;5073358;28;20051;-72
2022/05/04 02:59:08;;;;;;;6.30;4.00;;;14.20;99.90;;;;;;5073190;28;20512;-72
2022/05/04 03:04:22;;;;;;;6.60;3.90;;;14.20;99.90;;;;;;5073620;28;20340;-72
2022/05/04 03:06:49;;;;;;;7.63;5.40;;;14.20;99.90;;;;;;5091176;28;20139;-72
2022/05/04 03:09:17;;;;;;;7.38;4.75;;;14.30;99.90;;;;;;5091087;28;20486;-72
2022/05/04 03:11:56;;;;;;;5.38;4.13;;;14.30;99.90;;;;;;5056284;28;20055;-72
2022/05/04 03:14:27;;;;;;;7.32;5.13;;;14.30;99.90;;;;;;5072916;28;20143;-72
2022/05/04 03:16:55;;;;;;;7.05;4.43;;;14.30;99.90;;;;;;5073134;28;20072;-72
2022/05/04 03:19:24;;;;;;;7.43;4.68;;;14.30;99.90;;;;;;5056084;28;20051;-72
2022/05/04 03:21:52;;;;;;;7.13;5.00;;;14.30;99.90;;;;;;5073047;28;20119;-72
2022/05/04 03:24:21;;;;;;;6.90;3.83;;;14.30;99.90;;;;;;5072439;28;20096;-72
2022/05/04 03:26:48;;;;;;;7.45;4.65;;;14.30;99.90;;;;;;5090573;28;20064;-72
2022/05/04 03:29:16;;;;;;;5.38;3.80;;;14.40;99.90;;;;;;5055508;28;20051;-73
2022/05/04 03:31:44;;;;;;;7.82;5.15;;;14.40;99.90;;;;;;5055700;28;20576;-73
2022/05/04 03:34:11;;;;;;;6.22;4.45;;;14.40;99.90;;;;;;5091118;28;20055;-72
2022/05/04 03:36:39;;;;;;;6.78;4.70;;;14.50;99.90;;;;;;5090218;28;20396;-72
2022/05/04 03:39:07;;;;;;;8.85;6.00;;;14.50;99.90;;;;;;5056069;28;20044;-73
2022/05/04 03:41:35;;;;;;;8.70;5.35;;;14.50;99.90;;;;;;5039969;28;20155;-72
2022/05/04 03:44:03;;;;;;;7.68;5.80;;;14.50;99.90;;;;;;5090735;28;20040;-72
2022/05/04 03:46:43;;;;;;;7.95;5.88;;;14.50;99.90;;;;;;5090459;28;20060;-72
2022/05/04 03:49:11;;;;;;;10.02;5.90;;;14.50;99.90;;;;;;5071192;28;20086;-72
2022/05/04 03:51:39;;;;;;;6.38;5.35;;;14.50;99.90;;;;;;5056340;28;20502;-72
2022/05/04 03:54:06;;;;;;;6.50;5.35;;;14.50;99.90;;;;;;5072718;28;20051;-72
2022/05/04 03:56:35;;;;;;;7.50;5.60;;;14.50;99.90;;;;;;5072421;28;20040;-73
2022/05/04 03:59:03;;;;;;;7.70;6.05;;;14.40;99.90;;;;;;5072449;28;20490;-72
2022/05/04 04:01:32;;;;;;;7.25;5.18;;;14.50;99.90;;;;;;5074208;28;20452;-72
2022/05/04 04:03:59;;;;;;;8.07;5.43;;;14.50;99.90;;;;;;5036192;28;20060;-72
2022/05/04 04:06:27;;;;;;;7.57;6.32;;;14.60;99.90;;;;;;5069947;28;20123;-72
2022/05/04 04:08:55;;;;;;;12.48;7.07;;;14.60;99.90;;;;;;5052214;28;20048;-72
2022/05/04 04:11:22;;;;;;;11.20;6.82;;;14.60;99.90;;;;;;5051862;28;20056;-72
2022/05/04 04:13:50;;;;;;;9.02;6.75;;;14.70;99.90;;;;;;5052583;28;20049;-72
2022/05/04 04:16:17;;;;;;;9.68;7.28;;;14.80;99.90;;;;;;5052194;28;20044;-72
2022/05/04 04:18:45;;;;;;;13.25;9.35;;;14.80;99.90;;;;;;5052356;28;20044;-72
2022/05/04 04:23:58;;;;;;;14.57;8.13;;;14.90;99.90;;;;;;5072076;28;20077;-73
2022/05/04 04:26:26;;;;;;;11.02;7.53;;;15.00;99.90;;;;;;5046963;28;20063;-73
2022/05/04 04:28:54;;;;;;;10.82;7.32;;;15.10;99.90;;;;;;5073458;28;20051;-72
2022/05/04 04:31:21;;;;;;;9.20;6.75;;;15.10;99.90;;;;;;5069115;28;20405;-72
2022/05/04 04:33:50;;;;;;;8.95;5.72;;;15.20;99.90;;;;;;5100204;28;20043;-73
2022/05/04 04:36:18;;;;;;;9.65;5.78;;;15.20;99.90;;;;;;5070595;28;20494;-73
2022/05/04 04:38:55;;;;;;;9.82;6.47;;;15.20;99.90;;;;;;4764270;28;20284;-73
2022/05/04 04:41:24;;;;;;;12.55;6.30;;;15.20;99.90;;;;;;5067269;28;20053;-73
2022/05/04 04:43:51;;;;;;;10.60;7.45;;;15.30;99.90;;;;;;5069246;28;20310;-73
2022/05/04 04:46:19;;;;;;;9.40;6.80;;;15.40;99.90;;;;;;5064318;28;20131;-74
2022/05/04 04:48:46;;;;;;;11.65;6.80;;;15.40;99.90;;;;;;5034250;28;20414;-72
2022/05/04 04:51:14;;;;;;;9.00;6.53;;;15.60;99.90;;;;;;5069357;28;20057;-72
2022/05/04 04:53:42;;;;;;;10.52;6.07;;;15.80;99.90;;;;;;5069886;28;20491;-71
2022/05/04 04:56:10;;;;;;;9.30;5.50;;;16.00;99.90;;;;;;5051827;28;20040;-70
2022/05/04 04:58:37;;;;;;;9.15;6.57;;;16.20;99.90;;;;;;5034184;28;20135;-70
2022/05/04 05:01:05;;;;;;;9.40;5.45;;;16.50;99.90;;;;;;5034770;28;20502;-70
2022/05/04 05:03:32;;;;;;;8.02;6.63;;;16.70;99.90;;;;;;5069184;28;20124;-70
2022/05/04 05:06:00;;;;;;;8.88;5.43;;;16.80;99.90;;;;;;5069477;28;20109;-70
2022/05/04 05:08:28;;;;;;;11.20;5.55;;;17.00;99.90;;;;;;5050970;28;20146;-73
2022/05/04 05:10:55;;;;;;;8.85;5.70;;;17.10;99.90;;;;;;5017995;28;20410;-73
2022/05/04 05:13:23;;;;;;;12.55;5.75;;;17.20;99.90;;;;;;5034337;28;20186;-72
2022/05/04 05:16:08;;;;;;;10.98;6.05;;;17.30;99.90;;;;;;5035223;28;20046;-71
2022/05/04 05:18:37;;;;;;;10.32;5.95;;;17.50;99.90;;;;;;5051290;28;20040;-72
2022/05/04 05:21:05;;;;;;;8.60;5.72;;;17.70;99.90;;;;;;5069189;28;20072;-73
2022/05/04 05:23:33;;;;;;;7.53;5.28;;;17.80;99.90;;;;;;5051578;28;20072;-72
2022/05/04 05:26:00;;;;;;;6.32;5.68;;;17.90;99.90;;;;;;5069675;28;20048;-71
2022/05/04 05:28:28;;;;;;;8.25;6.18;;;18.00;99.90;;;;;;5069568;28;20052;-71
2022/05/04 05:30:55;;;;;;;8.43;6.15;;;18.20;99.90;;;;;;5035204;28;20088;-71
2022/05/04 05:33:23;;;;;;;7.78;5.95;;;18.30;99.90;;;;;;5034278;28;20090;-71
2022/05/04 05:35:51;;;;;;;8.23;5.45;;;18.50;99.90;;;;;;5051303;28;20106;-71
2022/05/04 05:38:18;;;;;;;7.40;4.88;;;18.60;99.90;;;;;;5035945;28;20052;-71
2022/05/04 05:40:47;;;;;;;7.53;4.72;;;18.70;99.90;;;;;;5038619;28;20294;-73
2022/05/04 05:43:14;;;;;;;7.13;5.20;;;18.90;99.90;;;;;;5059702;28;20398;-72
2022/05/04 05:45:42;;;;;;;7.32;4.15;;;19.00;99.90;;;;;;5075172;28;20101;-71
2022/05/04 05:48:10;;;;;;;5.40;3.50;;;19.20;99.90;;;;;;5075052;28;20032;-71
2022/05/04 05:50:37;;;;;;;6.45;2.95;;;19.30;99.90;;;;;;5075203;28;20044;-71
2022/05/04 05:53:05;;;;;;;3.70;2.55;;;19.40;99.90;;;;;;5074415;28;20044;-73
2022/05/04 05:55:32;;;;;;;4.70;2.78;;;19.40;99.90;;;;;;5074507;28;20044;-71
2022/05/04 05:58:00;;;;;;;4.15;2.75;;;19.50;99.90;;;;;;5074724;28;20131;-72
2022/05/04 06:00:28;;;;;;;6.25;2.90;;;19.60;99.90;;;;;;5092659;28;20044;-71
2022/05/04 06:02:56;;;;;;;8.20;4.63;;;19.60;99.90;;;;;;5074246;28;20044;-72
2022/05/04 06:05:24;;;;;;;4.57;3.55;;;19.80;99.90;;;;;;5092464;28;20044;-72
2022/05/04 06:07:51;;;;;;;6.28;3.30;;;19.80;99.90;;;;;;5057030;28;20044;-73
2022/05/04 06:10:19;;;;;;;3.80;2.38;;;19.90;99.90;;;;;;5057668;28;20398;-72
2022/05/04 06:12:46;;;;;;;3.60;2.40;;;19.80;99.80;;;;;;5074630;28;20052;-71
2022/05/04 06:15:14;;;;;;;3.65;2.58;;;19.90;99.50;;;;;;5092027;28;20448;-71
2022/05/04 06:17:44;;;;;;;3.42;2.10;;;20.00;99.40;;;;;;5092390;28;20517;-72
2022/05/04 06:20:12;;;;;;;2.83;2.10;;;20.00;99.60;;;;;;5091809;28;20048;-72
2022/05/04 06:22:39;;;;;;;4.97;2.50;;;20.20;99.20;;;;;;5057444;28;20089;-72
2022/05/04 06:25:07;;;;;;;4.40;2.38;;;20.30;98.90;;;;;;5092360;28;20059;-71
2022/05/04 06:27:35;;;;;;;4.45;2.08;;;20.40;98.20;;;;;;5092050;28;20044;-73
2022/05/04 06:35:35;;;;;;;5.78;2.58;;;20.60;97.60;;;;;;5073842;28;20052;-71
2022/05/04 06:38:03;;;;;;;2.67;1.77;;;20.70;97.00;;;;;;5073877;28;20036;-72
2022/05/04 06:40:31;;;;;;;2.65;1.85;;;20.80;96.30;;;;;;5092345;28;20036;-72
2022/05/04 06:42:59;;;;;;;2.05;1.75;;;20.90;96.00;;;;;;5057037;28;20052;-72
2022/05/04 06:45:27;;;;;;;3.50;1.88;;;21.10;95.80;;;;;;5091599;28;20047;-72
2022/05/04 06:47:55;;;;;;;2.90;1.85;;;21.20;95.60;;;;;;5056993;28;20048;-72
2022/05/04 06:50:23;;;;;;;4.03;1.65;;;21.30;95.40;;;;;;5073712;28;20175;-72
2022/05/04 06:52:51;;;;;;;3.33;1.80;;;21.40;95.30;;;;;;5073649;28;20138;-71
2022/05/04 06:55:18;;;;;;;2.58;1.60;;;21.50;95.50;;;;;;5091638;28;20040;-74
2022/05/04 06:57:46;;;;;;;3.10;1.85;;;21.60;95.30;;;;;;5091452;28;20047;-71
2022/05/04 07:00:14;;;;;;;3.80;2.00;;;21.70;95.00;;;;;;5073183;28;20052;-71
2022/05/04 07:02:41;;;;;;;5.10;2.25;;;21.60;94.70;;;;;;5073759;28;20138;-71
2022/05/04 07:05:09;;;;;;;3.85;2.25;;;21.30;94.90;;;;;;5091537;28;20544;-71
2022/05/04 07:07:36;;;;;;;3.53;2.53;;;21.20;95.30;;;;;;5056703;28;20075;-72
2022/05/04 07:10:05;;;;;;;3.33;2.13;;;21.20;95.60;;;;;;5090526;28;20058;-71
2022/05/04 07:12:32;;;;;;;4.93;2.38;;;21.20;95.90;;;;;;5056324;28;20132;-73
2022/05/04 07:15:00;;;;;;;5.03;2.65;;;21.10;95.50;;;;;;5073179;28;20043;-71
2022/05/04 07:17:28;;;;;;;3.47;2.42;;;20.80;95.60;;;;;;5072644;28;20048;-71
2022/05/04 07:19:55;;;;;;;5.53;3.35;;;20.70;95.90;;;;;;5056563;28;20794;-72
2022/05/04 07:22:23;;;;;;;4.80;2.78;;;20.80;96.40;;;;;;5091318;28;20052;-71
2022/05/04 07:24:51;;;;;;;7.07;3.17;;;21.10;96.30;;;;;;5080674;28;20394;-71
2022/05/04 07:27:18;;;;;;;4.32;2.70;;;21.40;95.60;;;;;;5072823;28;20052;-72
2022/05/04 07:29:47;;;;;;;5.75;2.70;;;21.70;95.10;;;;;;5056717;28;20044;-72
2022/05/04 07:32:15;;;;;;;3.88;2.38;;;22.00;94.80;;;;;;5056436;28;20118;-72
2022/05/04 07:34:43;;;;;;;4.32;2.92;;;22.20;94.40;;;;;;5091269;28;20512;-72
2022/05/04 07:37:11;;;;;;;4.28;2.65;;;22.40;93.70;;;;;;5072707;28;20097;-72
2022/05/04 07:42:25;;;;;;;4.03;2.80;;;22.60;92.70;;;;;;5055614;28;20047;-73
2022/05/04 07:45:07;;;;;;;6.05;3.42;;;22.70;92.80;;;;;;5072946;28;20505;-71
2022/05/04 07:47:36;;;;;;;3.25;2.85;;;22.10;92.00;;;;;;5056418;28;20044;-71
2022/05/04 07:50:05;;;;;;;5.82;2.88;;;22.10;92.70;;;;;;5055871;28;20463;-70
2022/05/04 07:52:33;;;;;;;10.68;3.88;;;21.90;93.00;;;;;;5056069;28;20056;-70
2022/05/04 07:55:02;;;;;;;5.60;3.00;;;21.70;93.30;;;;;;5072504;28;20075;-73
2022/05/04 07:57:30;;;;;;;3.03;2.25;;;21.60;93.50;;;;;;5090426;28;20052;-72
2022/05/04 08:05:39;;;;;;;4.50;3.08;;;22.00;93.00;;;;;;5090687;28;20482;-72
2022/05/04 08:08:08;;;;;;;4.15;2.42;;;22.10;92.50;;;;;;5056084;28;20052;-70
2022/05/04 08:10:35;;;;;;;8.90;2.53;;;22.20;92.30;;;;;;5072723;28;20036;-69
2022/05/04 08:13:03;;;;;;;3.30;2.17;;;22.30;92.10;;;;;;5072935;28;20413;-72
2022/05/04 08:15:31;;;;;;;8.80;2.30;;;22.30;91.10;;;;;;5090689;28;20044;-72
2022/05/04 08:17:59;;;;;;;5.85;2.85;;;22.40;91.10;;;;;;5054991;28;20130;-70
2022/05/04 08:20:28;;;;;;;3.47;1.90;;;22.60;91.30;;;;;;5072433;28;20569;-72
2022/05/04 08:22:57;;;;;;;4.25;2.22;;;22.70;90.70;;;;;;5072451;28;20130;-74
2022/05/04 08:25:26;;;;;;;3.70;2.30;;;22.70;90.90;;;;;;5072301;28;20048;-72
2022/05/04 08:27:53;;;;;;;2.78;2.05;;;22.90;91.30;;;;;;5072557;28;20040;-70
2022/05/04 08:30:21;;;;;;;3.05;2.10;;;23.10;91.10;;;;;;5072144;28;20040;-70
2022/05/04 08:32:49;;;;;;;4.20;2.15;;;23.10;90.60;;;;;;5072725;28;20056;-69
2022/05/04 08:35:17;;;;;;;3.90;2.50;;;23.10;90.70;;;;;;5090126;28;20127;-69
2022/05/04 08:37:46;;;;;;;4.38;2.15;;;23.10;90.80;;;;;;5072243;28;20497;-69
2022/05/04 08:40:14;;;;;;;4.05;1.88;;;22.90;90.60;;;;;;5089773;28;20048;-70
2022/05/04 08:42:44;;;;;;;4.70;2.42;;;22.60;90.00;;;;;;5072055;28;20755;-70
2022/05/04 08:45:14;;;;;;;3.90;2.40;;;22.50;90.10;;;;;;5055365;28;20052;-70
2022/05/04 08:47:44;;;;;;;4.05;2.03;;;22.40;90.70;;;;;;5039095;28;20052;-69
2022/05/04 08:50:15;;;;;;;3.78;2.22;;;22.40;90.50;;;;;;5055362;28;20063;-71
2022/05/04 08:52:51;;;;;;;2.72;2.00;;;22.50;90.40;;;;;;5072571;28;20083;-72
2022/05/04 08:55:21;;;;;;;2.63;1.98;;;22.10;89.70;;;;;;5070851;28;20536;-70
2022/05/04 08:57:50;;;;;;;3.35;2.03;;;22.00;90.30;;;;;;5071797;28;20059;-70
2022/05/04 09:00:18;;;;;;;4.53;2.60;;;22.10;91.00;;;;;;5071815;28;20054;-70
2022/05/04 09:02:46;;;;;;;3.22;2.30;;;22.00;91.40;;;;;;5089797;28;20052;-73
2022/05/04 09:05:20;;;;;;;2.65;1.90;;;22.10;91.60;;;;;;5089909;28;20098;-70
2022/05/04 09:07:49;;;;;;;2.97;2.30;;;22.00;92.20;;;;;;5072078;28;20127;-70
2022/05/04 09:10:22;;;;;;;2.80;2.25;;;22.10;92.40;;;;;;5054942;28;20103;-70
2022/05/04 09:12:52;;;;;;;3.00;2.25;;;22.00;92.40;;;;;;5057641;28;20048;-70
2022/05/04 09:15:26;;;;;;;4.05;2.25;;;21.90;92.50;;;;;;5093591;28;20076;-70
2022/05/04 09:17:56;;;;;;;3.40;2.22;;;21.80;92.60;;;;;;5093994;28;20102;-70
2022/05/04 09:23:25;;;;;;;3.08;1.80;;;22.00;92.10;;;;;;5093847;28;20051;-70
2022/05/04 09:25:55;;;;;;;4.03;2.72;;;22.30;92.00;;;;;;5075940;28;20139;-71
2022/05/04 09:28:24;;;;;;;5.28;2.38;;;22.60;91.90;;;;;;5075446;28;20512;-70
2022/05/04 09:30:57;;;;;;;2.88;2.08;;;22.70;91.70;;;;;;5075349;28;20117;-70
2022/05/04 09:33:29;;;;;;;3.10;2.00;;;22.70;91.30;;;;;;5042108;28;20098;-70
2022/05/04 09:35:59;;;;;;;2.97;1.98;;;22.50;91.50;;;;;;5042559;28;20055;-71
2022/05/04 09:46:52;;;;;;;2.60;1.83;;;21.40;92.50;;;;;;5074947;28;20437;-71
2022/05/04 09:49:28;;;;;;;3.55;2.15;;;21.40;92.90;;;;;;5041974;28;20051;-71
2022/05/04 09:51:55;;;;;;;5.82;1.95;;;21.40;92.80;;;;;;5075158;28;20090;-70
2022/05/04 09:54:27;;;;;;;3.30;2.00;;;21.50;93.00;;;;;;5075122;28;20040;-71
2022/05/04 09:56:56;;;;;;;3.17;2.22;;;21.60;92.80;;;;;;5073927;28;20052;-71
2022/05/04 09:59:29;;;;;;;4.25;2.00;;;21.80;92.70;;;;;;5073462;28;20564;-74
2022/05/04 10:01:59;;;;;;;4.43;2.35;;;21.70;92.40;;;;;;5074223;28;20379;-71
2022/05/04 10:04:28;;;;;;;3.60;2.40;;;21.60;92.50;;;;;;5092492;28;20093;-71
2022/05/04 10:07:03;;;;;;;3.50;2.65;;;21.50;92.70;;;;;;5089933;28;20044;-70
2022/05/04 10:09:32;;;;;;;4.72;2.17;;;21.30;92.90;;;;;;5057477;28;20047;-71
2022/05/04 10:12:00;;;;;;;3.28;2.17;;;21.30;92.90;;;;;;5057524;28;20074;-71
2022/05/04 10:14:29;;;;;;;3.15;2.40;;;21.50;92.70;;;;;;5092293;28;20122;-72
2022/05/04 10:17:11;;;;;;;3.70;2.33;;;22.00;93.10;;;;;;5074103;28;20047;-72
2022/05/04 10:20:03;;;;;;;2.97;1.85;;;22.10;92.60;;;;;;5073233;28;20185;-71
2022/05/04 10:22:36;;;;;;;3.63;2.38;;;22.10;92.40;;;;;;5074405;28;20052;-71
2022/05/04 10:25:05;;;;;;;3.38;2.08;;;22.10;92.40;;;;;;5056285;28;20567;-71
2022/05/04 10:27:39;;;;;;;5.10;3.30;;;22.30;92.40;;;;;;5057179;28;20056;-72
2022/05/04 10:33:00;;;;;;;3.65;2.45;;;22.60;92.10;;;;;;5091953;28;20152;-71
2022/05/04 10:35:34;;;;;;;3.38;2.15;;;22.50;92.60;;;;;;5074038;28;20052;-72
2022/05/04 10:38:01;;;;;;;4.47;2.30;;;22.40;92.70;;;;;;5040408;28;20495;-72
2022/05/04 10:40:50;;;;;;;2.78;2.05;;;22.30;92.70;;;;;;5073440;28;20044;-71
2022/05/04 10:43:36;;;;;;;5.53;2.22;;;22.10;92.70;;;;;;5073598;28;20056;-71
2022/05/04 10:46:04;;;;;;;3.85;2.40;;;22.10;92.70;;;;;;5056575;28;20058;-72
2022/05/04 10:48:32;;;;;;;3.60;2.45;;;22.10;92.90;;;;;;5057115;28;20093;-72
2022/05/04 10:51:03;;;;;;;3.92;2.50;;;22.10;93.00;;;;;;5073679;28;20055;-71
2022/05/04 10:53:33;;;;;;;3.47;2.15;;;22.00;92.90;;;;;;5091535;28;20067;-72
2022/05/04 10:56:01;;;;;;;3.47;2.08;;;21.90;93.10;;;;;;5072626;28;20545;-71
2022/05/04 10:58:53;;;;;;;4.65;2.28;;;21.70;93.20;;;;;;5039327;28;20040;-72
2022/05/04 11:01:34;;;;;;;4.65;2.35;;;21.50;93.40;;;;;;5072928;28;20447;-72
2022/05/04 11:04:09;;;;;;;5.32;2.38;;;21.30;93.70;;;;;;5091192;28;20044;-71
2022/05/04 11:06:52;;;;;;;3.58;2.38;;;21.10;93.90;;;;;;5056702;28;20134;-72
2022/05/04 11:09:26;;;;;;;6.53;3.05;;;21.00;94.20;;;;;;5055547;28;20056;-71
2022/05/04 11:11:56;;;;;;;3.38;2.35;;;21.10;94.30;;;;;;5073168;28;20062;-71
2022/05/04 11:14:25;;;;;;;3.60;2.47;;;21.40;94.30;;;;;;5056585;28;20048;-71
2022/05/04 11:16:57;;;;;;;3.47;2.00;;;21.60;93.90;;;;;;5091131;28;20040;-71
2022/05/04 11:19:28;;;;;;;4.13;2.30;;;21.80;93.20;;;;;;5090745;28;20480;-71
2022/05/04 11:21:56;;;;;;;5.35;2.53;;;22.00;93.00;;;;;;5072726;28;20048;-71
2022/05/04 11:24:28;;;;;;;3.42;2.55;;;22.10;92.80;;;;;;5056370;28;20043;-71
2022/05/04 11:26:56;;;;;;;3.42;2.30;;;22.00;92.60;;;;;;5072653;28;20101;-71
2022/05/04 11:29:26;;;;;;;3.05;2.25;;;21.90;92.70;;;;;;5073008;28;20044;-71
2022/05/04 11:31:56;;;;;;;3.03;2.20;;;21.90;92.90;;;;;;5055814;28;20391;-71
2022/05/04 11:34:34;;;;;;;3.65;1.92;;;21.80;92.70;;;;;;5072885;28;20173;-72
2022/05/04 11:37:07;;;;;;;4.93;2.78;;;21.60;93.10;;;;;;5091345;28;20089;-71
2022/05/04 11:39:38;;;;;;;3.42;2.55;;;21.70;93.30;;;;;;5056328;28;20047;-71
2022/05/04 11:42:08;;;;;;;3.72;2.50;;;21.70;92.70;;;;;;5091655;28;20043;-71
2022/05/04 11:44:46;;;;;;;3.30;2.13;;;21.60;92.90;;;;;;5073386;28;20044;-71
2022/05/04 11:47:14;;;;;;;2.72;1.98;;;21.50;92.60;;;;;;5087897;28;20507;-71
2022/05/04 11:49:41;;;;;;;3.40;1.98;;;21.60;92.80;;;;;;5053221;28;20502;-71
2022/05/04 11:52:10;;;;;;;4.22;2.03;;;21.70;92.30;;;;;;5036485;28;20628;-71
2022/05/04 11:54:38;;;;;;;3.40;2.13;;;21.60;92.10;;;;;;5070600;28;20048;-71
2022/05/04 11:57:13;;;;;;;4.55;2.20;;;21.40;91.80;;;;;;5036186;28;20376;-71
2022/05/04 11:59:40;;;;;;;3.35;2.13;;;21.30;91.90;;;;;;5070822;28;20047;-71
2022/05/04 12:02:08;;;;;;;7.00;3.15;;;21.10;91.70;;;;;;5070541;28;20498;-71
2022/05/04 12:04:37;;;;;;;3.38;2.35;;;21.10;91.70;;;;;;5070340;28;20044;-78
2022/05/04 12:07:06;;;;;;;3.47;2.30;;;21.00;91.70;;;;;;5052238;28;20059;-72
2022/05/04 12:09:34;;;;;;;3.58;2.25;;;21.10;91.60;;;;;;5036360;28;20110;-70
2022/05/04 12:12:02;;;;;;;3.92;2.47;;;21.10;91.70;;;;;;5036261;28;20055;-71
2022/05/04 12:14:30;;;;;;;3.40;2.28;;;21.20;91.20;;;;;;5052770;28;20040;-71
2022/05/04 12:16:59;;;;;;;3.38;2.33;;;21.20;90.90;;;;;;5052052;28;20045;-71
2022/05/04 12:19:30;;;;;;;3.70;2.10;;;21.30;91.30;;;;;;5052299;28;20376;-70
2022/05/04 12:21:58;;;;;;;4.10;2.50;;;21.40;91.10;;;;;;5036166;28;20086;-70
2022/05/04 12:24:26;;;;;;;3.33;2.15;;;21.30;90.70;;;;;;4932127;28;20704;-72
2022/05/04 12:26:55;;;;;;;5.75;3.63;;;21.20;90.90;;;;;;4865913;28;20490;-72
2022/05/04 12:34:56;;;;;;;4.05;2.90;;;21.10;90.90;;;;;;5056760;28;20036;-72
2022/05/04 12:37:31;;;;;;;4.97;2.38;;;21.20;90.50;;;;;;5071489;28;20050;-72
2022/05/04 12:40:01;;;;;;;4.57;2.80;;;21.30;90.10;;;;;;5048136;28;20071;-72
2022/05/04 12:42:31;;;;;;;6.47;3.00;;;21.50;89.40;;;;;;5035636;28;20051;-72
2022/05/04 12:44:59;;;;;;;3.70;2.30;;;21.50;88.80;;;;;;5073418;28;20119;-73
2022/05/04 12:47:29;;;;;;;4.28;2.42;;;21.60;87.90;;;;;;5074609;28;20051;-77
2022/05/04 12:49:57;;;;;;;2.80;1.98;;;21.50;87.40;;;;;;5069556;28;20728;-73
2022/05/04 12:52:25;;;;;;;4.20;2.40;;;21.60;87.50;;;;;;5039778;28;20052;-73
2022/05/04 12:54:53;;;;;;;3.25;2.20;;;21.50;88.10;;;;;;5056446;28;20044;-72
2022/05/04 12:57:20;;;;;;;3.55;2.30;;;21.50;88.70;;;;;;5056059;28;20131;-72
2022/05/04 12:59:48;;;;;;;3.63;2.35;;;21.60;88.50;;;;;;5063865;28;20052;-74
2022/05/04 13:02:16;;;;;;;3.45;2.30;;;21.60;87.90;;;;;;5047986;28;20160;-73
2022/05/04 13:04:44;;;;;;;4.22;2.63;;;21.70;88.10;;;;;;5061305;28;20053;-73
2022/05/04 13:07:11;;;;;;;4.65;2.17;;;21.60;87.00;;;;;;5055698;28;20036;-73
2022/05/04 13:09:41;;;;;;;3.47;2.15;;;21.60;85.80;;;;;;5069769;28;20052;-73
2022/05/04 13:12:11;;;;;;;3.03;2.25;;;21.60;85.90;;;;;;5040114;28;20055;-72
2022/05/04 13:14:39;;;;;;;3.03;2.38;;;21.70;86.50;;;;;;5054450;28;20036;-72
2022/05/04 13:17:07;;;;;;;3.33;2.13;;;21.60;86.60;;;;;;5057167;28;20068;-72
2022/05/04 13:19:36;;;;;;;2.92;2.08;;;21.60;86.60;;;;;;5061153;28;20143;-72
2022/05/04 13:22:03;;;;;;;8.95;2.00;;;21.70;85.80;;;;;;5053210;28;20049;-72
2022/05/04 13:24:31;;;;;;;3.92;2.15;;;21.70;85.20;;;;;;5066687;28;20044;-72
2022/05/04 13:26:59;;;;;;;3.58;2.45;;;21.70;84.20;;;;;;5061957;28;20855;-71
2022/05/04 13:29:26;;;;;;;3.72;2.13;;;21.70;85.00;;;;;;5054679;28;20075;-72
2022/05/04 13:31:54;;;;;;;4.20;2.33;;;21.70;85.60;;;;;;5052314;28;20499;-72
2022/05/04 13:34:22;;;;;;;3.53;2.53;;;21.80;85.40;;;;;;5058397;28;20123;-72
2022/05/04 13:36:49;;;;;;;3.45;2.22;;;21.60;85.40;;;;;;5038465;28;20057;-72